sensor_id;sensor_type;location;lat;lon;timestamp;temperature;humidity
13322;DHT22;6730;46.248;6.930;2022-07-12T00:02:24;19.90;95.40
13322;DHT22;6730;46.248;6.930;2022-07-12T00:04:50;20.10;95.10
13322;DHT22;6730;46.248;6.930;2022-07-12T00:07:17;20.20;95.00
13322;DHT22;6730;46.248;6.930;2022-07-12T00:09:43;20.20;95.10
13322;DHT22;6730;46.248;6.930;2022-07-12T00:12:09;19.90;95.50
13322;DHT22;6730;46.248;6.930;2022-07-12T00:14:35;19.90;95.40
13322;DHT22;6730;46.248;6.930;2022-07-12T00:17:00;20.10;95.30
13322;DHT22;6730;46.248;6.930;2022-07-12T00:19:28;20.10;95.10
13322;DHT22;6730;46.248;6.930;2022-07-12T00:21:53;20.00;95.30
13322;DHT22;6730;46.248;6.930;2022-07-12T00:24:19;20.00;95.10
13322;DHT22;6730;46.248;6.930;2022-07-12T00:26:45;20.00;95.00
13322;DHT22;6730;46.248;6.930;2022-07-12T00:29:16;20.00;95.10
13322;DHT22;6730;46.248;6.930;2022-07-12T00:31:42;20.00;95.10
13322;DHT22;6730;46.248;6.930;2022-07-12T00:34:08;19.90;95.10
13322;DHT22;6730;46.248;6.930;2022-07-12T00:36:33;19.90;95.30
13322;DHT22;6730;46.248;6.930;2022-07-12T00:39:00;19.70;95.70
13322;DHT22;6730;46.248;6.930;2022-07-12T00:41:25;19.60;95.80
13322;DHT22;6730;46.248;6.930;2022-07-12T00:43:51;19.70;95.60
13322;DHT22;6730;46.248;6.930;2022-07-12T00:46:21;19.70;95.40
13322;DHT22;6730;46.248;6.930;2022-07-12T00:48:47;19.80;95.50
13322;DHT22;6730;46.248;6.930;2022-07-12T00:51:13;19.70;95.60
13322;DHT22;6730;46.248;6.930;2022-07-12T00:53:39;19.70;95.90
13322;DHT22;6730;46.248;6.930;2022-07-12T00:56:05;19.70;95.50
13322;DHT22;6730;46.248;6.930;2022-07-12T00:58:34;19.70;95.60
13322;DHT22;6730;46.248;6.930;2022-07-12T01:00:59;19.50;96.20
13322;DHT22;6730;46.248;6.930;2022-07-12T01:03:25;19.50;95.70
13322;DHT22;6730;46.248;6.930;2022-07-12T01:05:54;19.60;95.50
13322;DHT22;6730;46.248;6.930;2022-07-12T01:08:20;19.80;95.30
13322;DHT22;6730;46.248;6.930;2022-07-12T01:10:50;19.80;95.30
13322;DHT22;6730;46.248;6.930;2022-07-12T01:13:19;19.80;95.30
13322;DHT22;6730;46.248;6.930;2022-07-12T01:15:47;19.70;95.50
13322;DHT22;6730;46.248;6.930;2022-07-12T01:18:13;19.60;95.30
13322;DHT22;6730;46.248;6.930;2022-07-12T01:20:39;19.60;95.60
13322;DHT22;6730;46.248;6.930;2022-07-12T01:23:05;19.60;95.40
13322;DHT22;6730;46.248;6.930;2022-07-12T01:25:31;19.70;95.40
13322;DHT22;6730;46.248;6.930;2022-07-12T01:27:57;19.70;95.20
13322;DHT22;6730;46.248;6.930;2022-07-12T01:30:23;19.50;95.80
13322;DHT22;6730;46.248;6.930;2022-07-12T01:32:51;19.50;95.60
13322;DHT22;6730;46.248;6.930;2022-07-12T01:35:18;19.40;95.80
13322;DHT22;6730;46.248;6.930;2022-07-12T01:37:43;19.40;96.00
13322;DHT22;6730;46.248;6.930;2022-07-12T01:40:12;19.50;95.60
13322;DHT22;6730;46.248;6.930;2022-07-12T01:42:38;19.50;95.60
13322;DHT22;6730;46.248;6.930;2022-07-12T01:45:05;19.60;95.60
13322;DHT22;6730;46.248;6.930;2022-07-12T01:47:32;19.70;95.70
13322;DHT22;6730;46.248;6.930;2022-07-12T01:49:59;19.70;95.30
13322;DHT22;6730;46.248;6.930;2022-07-12T01:52:28;19.60;95.50
13322;DHT22;6730;46.248;6.930;2022-07-12T01:54:54;19.60;95.70
13322;DHT22;6730;46.248;6.930;2022-07-12T01:57:21;19.60;95.20
13322;DHT22;6730;46.248;6.930;2022-07-12T01:59:47;19.70;95.20
13322;DHT22;6730;46.248;6.930;2022-07-12T02:02:12;19.60;95.50
13322;DHT22;6730;46.248;6.930;2022-07-12T02:04:38;19.60;95.20
13322;DHT22;6730;46.248;6.930;2022-07-12T02:07:05;19.70;95.30
13322;DHT22;6730;46.248;6.930;2022-07-12T02:09:31;19.60;95.60
13322;DHT22;6730;46.248;6.930;2022-07-12T02:11:57;19.60;95.50
13322;DHT22;6730;46.248;6.930;2022-07-12T02:14:23;19.50;95.50
13322;DHT22;6730;46.248;6.930;2022-07-12T02:16:49;19.40;95.50
13322;DHT22;6730;46.248;6.930;2022-07-12T02:19:15;19.30;96.00
13322;DHT22;6730;46.248;6.930;2022-07-12T02:21:41;19.20;95.90
13322;DHT22;6730;46.248;6.930;2022-07-12T02:24:07;19.20;95.80
13322;DHT22;6730;46.248;6.930;2022-07-12T02:26:36;19.10;96.30
13322;DHT22;6730;46.248;6.930;2022-07-12T02:29:04;18.90;96.40
13322;DHT22;6730;46.248;6.930;2022-07-12T02:31:30;19.10;96.10
13322;DHT22;6730;46.248;6.930;2022-07-12T02:33:57;19.20;95.80
13322;DHT22;6730;46.248;6.930;2022-07-12T02:36:23;19.10;95.80
13322;DHT22;6730;46.248;6.930;2022-07-12T02:38:49;19.00;96.40
13322;DHT22;6730;46.248;6.930;2022-07-12T02:41:14;19.00;96.40
13322;DHT22;6730;46.248;6.930;2022-07-12T02:43:40;19.20;95.80
13322;DHT22;6730;46.248;6.930;2022-07-12T02:46:08;19.30;95.60
13322;DHT22;6730;46.248;6.930;2022-07-12T02:48:35;19.30;95.90
13322;DHT22;6730;46.248;6.930;2022-07-12T02:51:01;19.30;95.60
13322;DHT22;6730;46.248;6.930;2022-07-12T02:53:27;19.20;96.00
13322;DHT22;6730;46.248;6.930;2022-07-12T02:55:53;19.10;95.90
13322;DHT22;6730;46.248;6.930;2022-07-12T02:58:19;19.00;96.30
13322;DHT22;6730;46.248;6.930;2022-07-12T03:00:44;19.10;95.90
13322;DHT22;6730;46.248;6.930;2022-07-12T03:03:11;18.90;96.10
13322;DHT22;6730;46.248;6.930;2022-07-12T03:05:38;18.70;96.60
13322;DHT22;6730;46.248;6.930;2022-07-12T03:08:04;18.70;96.30
13322;DHT22;6730;46.248;6.930;2022-07-12T03:10:30;18.70;96.50
13322;DHT22;6730;46.248;6.930;2022-07-12T03:12:56;18.50;96.80
13322;DHT22;6730;46.248;6.930;2022-07-12T03:15:22;18.50;96.90
13322;DHT22;6730;46.248;6.930;2022-07-12T03:17:48;18.50;96.90
13322;DHT22;6730;46.248;6.930;2022-07-12T03:20:14;18.40;96.80
13322;DHT22;6730;46.248;6.930;2022-07-12T03:22:45;18.50;96.80
13322;DHT22;6730;46.248;6.930;2022-07-12T03:25:14;18.30;97.10
13322;DHT22;6730;46.248;6.930;2022-07-12T03:27:40;18.20;97.20
13322;DHT22;6730;46.248;6.930;2022-07-12T03:30:06;18.20;97.30
13322;DHT22;6730;46.248;6.930;2022-07-12T03:32:32;18.10;97.40
13322;DHT22;6730;46.248;6.930;2022-07-12T03:34:58;17.90;97.70
13322;DHT22;6730;46.248;6.930;2022-07-12T03:37:24;17.80;98.00
13322;DHT22;6730;46.248;6.930;2022-07-12T03:39:49;17.80;98.00
13322;DHT22;6730;46.248;6.930;2022-07-12T03:42:15;17.80;98.50
13322;DHT22;6730;46.248;6.930;2022-07-12T03:44:41;17.90;97.70
13322;DHT22;6730;46.248;6.930;2022-07-12T03:47:07;17.90;97.70
13322;DHT22;6730;46.248;6.930;2022-07-12T03:49:33;18.00;97.50
13322;DHT22;6730;46.248;6.930;2022-07-12T03:51:58;18.10;97.30
13322;DHT22;6730;46.248;6.930;2022-07-12T03:54:24;18.30;96.90
13322;DHT22;6730;46.248;6.930;2022-07-12T03:56:50;18.40;96.70
13322;DHT22;6730;46.248;6.930;2022-07-12T03:59:34;18.50;96.60
13322;DHT22;6730;46.248;6.930;2022-07-12T04:02:00;18.60;96.60
13322;DHT22;6730;46.248;6.930;2022-07-12T04:04:27;18.70;96.40
13322;DHT22;6730;46.248;6.930;2022-07-12T04:06:53;18.70;96.60
13322;DHT22;6730;46.248;6.930;2022-07-12T04:09:19;18.60;97.20
13322;DHT22;6730;46.248;6.930;2022-07-12T04:11:45;18.40;96.90
13322;DHT22;6730;46.248;6.930;2022-07-12T04:14:10;18.40;97.20
13322;DHT22;6730;46.248;6.930;2022-07-12T04:16:36;18.60;96.50
13322;DHT22;6730;46.248;6.930;2022-07-12T04:19:02;18.70;96.50
13322;DHT22;6730;46.248;6.930;2022-07-12T04:21:28;18.80;96.40
13322;DHT22;6730;46.248;6.930;2022-07-12T04:23:54;18.70;96.60
13322;DHT22;6730;46.248;6.930;2022-07-12T04:26:19;18.80;96.60
13322;DHT22;6730;46.248;6.930;2022-07-12T04:28:45;18.90;96.40
13322;DHT22;6730;46.248;6.930;2022-07-12T04:31:11;19.10;95.60
13322;DHT22;6730;46.248;6.930;2022-07-12T04:33:36;19.20;95.80
13322;DHT22;6730;46.248;6.930;2022-07-12T04:36:02;19.20;96.40
13322;DHT22;6730;46.248;6.930;2022-07-12T04:38:28;18.90;96.80
13322;DHT22;6730;46.248;6.930;2022-07-12T04:40:54;18.80;96.30
13322;DHT22;6730;46.248;6.930;2022-07-12T04:43:19;18.90;96.40
13322;DHT22;6730;46.248;6.930;2022-07-12T04:45:45;18.90;96.60
13322;DHT22;6730;46.248;6.930;2022-07-12T04:48:11;18.80;96.60
13322;DHT22;6730;46.248;6.930;2022-07-12T04:50:37;18.80;97.10
13322;DHT22;6730;46.248;6.930;2022-07-12T04:53:03;18.60;97.80
13322;DHT22;6730;46.248;6.930;2022-07-12T04:55:29;18.60;98.20
13322;DHT22;6730;46.248;6.930;2022-07-12T04:57:55;18.80;96.70
13322;DHT22;6730;46.248;6.930;2022-07-12T05:00:21;18.90;96.80
13322;DHT22;6730;46.248;6.930;2022-07-12T05:02:47;18.90;97.30
13322;DHT22;6730;46.248;6.930;2022-07-12T05:05:13;19.00;97.70
13322;DHT22;6730;46.248;6.930;2022-07-12T05:07:40;19.00;98.10
13322;DHT22;6730;46.248;6.930;2022-07-12T05:10:07;19.00;98.60
13322;DHT22;6730;46.248;6.930;2022-07-12T05:12:34;18.60;99.30
13322;DHT22;6730;46.248;6.930;2022-07-12T05:15:00;18.40;99.90
13322;DHT22;6730;46.248;6.930;2022-07-12T05:17:26;18.40;99.90
13322;DHT22;6730;46.248;6.930;2022-07-12T05:19:51;18.50;99.90
13322;DHT22;6730;46.248;6.930;2022-07-12T05:22:17;18.80;99.50
13322;DHT22;6730;46.248;6.930;2022-07-12T05:24:43;19.10;97.90
13322;DHT22;6730;46.248;6.930;2022-07-12T05:27:08;19.60;96.90
13322;DHT22;6730;46.248;6.930;2022-07-12T05:29:35;19.90;96.50
13322;DHT22;6730;46.248;6.930;2022-07-12T05:32:01;20.10;96.20
13322;DHT22;6730;46.248;6.930;2022-07-12T05:34:27;20.20;96.40
13322;DHT22;6730;46.248;6.930;2022-07-12T05:36:53;19.80;97.90
13322;DHT22;6730;46.248;6.930;2022-07-12T05:39:19;19.20;96.90
13322;DHT22;6730;46.248;6.930;2022-07-12T05:41:45;18.70;98.60
13322;DHT22;6730;46.248;6.930;2022-07-12T05:44:12;18.60;98.50
13322;DHT22;6730;46.248;6.930;2022-07-12T05:46:38;18.60;98.70
13322;DHT22;6730;46.248;6.930;2022-07-12T05:49:05;18.60;99.90
13322;DHT22;6730;46.248;6.930;2022-07-12T05:51:30;18.70;98.40
13322;DHT22;6730;46.248;6.930;2022-07-12T05:54:14;18.80;99.40
13322;DHT22;6730;46.248;6.930;2022-07-12T05:56:40;18.80;99.50
13322;DHT22;6730;46.248;6.930;2022-07-12T05:59:06;19.10;99.50
13322;DHT22;6730;46.248;6.930;2022-07-12T06:01:31;19.40;99.40
13322;DHT22;6730;46.248;6.930;2022-07-12T06:03:57;19.40;99.20
13322;DHT22;6730;46.248;6.930;2022-07-12T06:06:23;19.80;99.40
13322;DHT22;6730;46.248;6.930;2022-07-12T06:08:48;20.10;98.50
13322;DHT22;6730;46.248;6.930;2022-07-12T06:11:14;20.20;99.30
13322;DHT22;6730;46.248;6.930;2022-07-12T06:13:40;21.00;98.80
13322;DHT22;6730;46.248;6.930;2022-07-12T06:16:06;21.30;97.90
13322;DHT22;6730;46.248;6.930;2022-07-12T06:18:34;21.30;97.50
13322;DHT22;6730;46.248;6.930;2022-07-12T06:21:00;21.40;97.10
13322;DHT22;6730;46.248;6.930;2022-07-12T06:23:26;21.80;97.40
13322;DHT22;6730;46.248;6.930;2022-07-12T06:25:51;22.00;96.40
13322;DHT22;6730;46.248;6.930;2022-07-12T06:28:17;22.20;95.70
13322;DHT22;6730;46.248;6.930;2022-07-12T06:30:43;22.20;96.40
13322;DHT22;6730;46.248;6.930;2022-07-12T06:33:08;22.10;95.60
13322;DHT22;6730;46.248;6.930;2022-07-12T06:35:34;22.30;96.20
13322;DHT22;6730;46.248;6.930;2022-07-12T06:38:00;22.30;95.90
13322;DHT22;6730;46.248;6.930;2022-07-12T06:40:26;22.50;96.40
13322;DHT22;6730;46.248;6.930;2022-07-12T06:42:51;22.30;95.50
13322;DHT22;6730;46.248;6.930;2022-07-12T06:45:17;22.60;96.80
13322;DHT22;6730;46.248;6.930;2022-07-12T06:47:43;23.20;95.20
13322;DHT22;6730;46.248;6.930;2022-07-12T06:50:09;22.30;96.10
13322;DHT22;6730;46.248;6.930;2022-07-12T06:52:35;22.80;95.30
13322;DHT22;6730;46.248;6.930;2022-07-12T06:55:01;22.90;95.10
13322;DHT22;6730;46.248;6.930;2022-07-12T06:57:27;22.70;94.90
13322;DHT22;6730;46.248;6.930;2022-07-12T06:59:56;22.90;95.70
13322;DHT22;6730;46.248;6.930;2022-07-12T07:02:21;23.10;95.30
13322;DHT22;6730;46.248;6.930;2022-07-12T07:04:47;23.40;95.20
13322;DHT22;6730;46.248;6.930;2022-07-12T07:07:13;24.10;94.60
13322;DHT22;6730;46.248;6.930;2022-07-12T07:09:39;23.70;94.60
13322;DHT22;6730;46.248;6.930;2022-07-12T07:12:05;23.20;95.50
13322;DHT22;6730;46.248;6.930;2022-07-12T07:14:31;23.30;95.00
13322;DHT22;6730;46.248;6.930;2022-07-12T07:16:56;23.80;94.30
13322;DHT22;6730;46.248;6.930;2022-07-12T07:19:22;23.80;95.10
13322;DHT22;6730;46.248;6.930;2022-07-12T07:21:51;23.50;94.50
13322;DHT22;6730;46.248;6.930;2022-07-12T07:24:16;23.50;94.70
13322;DHT22;6730;46.248;6.930;2022-07-12T07:26:42;23.40;94.10
13322;DHT22;6730;46.248;6.930;2022-07-12T07:29:08;23.60;95.30
13322;DHT22;6730;46.248;6.930;2022-07-12T07:31:52;23.50;95.30
13322;DHT22;6730;46.248;6.930;2022-07-12T07:34:17;24.00;95.30
13322;DHT22;6730;46.248;6.930;2022-07-12T07:36:43;24.70;94.60
13322;DHT22;6730;46.248;6.930;2022-07-12T07:39:09;24.90;93.20
13322;DHT22;6730;46.248;6.930;2022-07-12T07:41:35;25.00;93.10
13322;DHT22;6730;46.248;6.930;2022-07-12T07:44:00;25.60;93.70
13322;DHT22;6730;46.248;6.930;2022-07-12T07:46:26;25.60;94.00
13322;DHT22;6730;46.248;6.930;2022-07-12T07:48:52;25.50;93.30
13322;DHT22;6730;46.248;6.930;2022-07-12T07:51:17;25.50;94.30
13322;DHT22;6730;46.248;6.930;2022-07-12T07:53:43;26.10;92.00
13322;DHT22;6730;46.248;6.930;2022-07-12T07:56:09;25.70;92.50
13322;DHT22;6730;46.248;6.930;2022-07-12T07:58:34;25.80;92.50
13322;DHT22;6730;46.248;6.930;2022-07-12T08:01:00;26.10;93.80
13322;DHT22;6730;46.248;6.930;2022-07-12T08:03:26;26.10;91.90
13322;DHT22;6730;46.248;6.930;2022-07-12T08:05:51;25.50;92.70
13322;DHT22;6730;46.248;6.930;2022-07-12T08:08:18;25.40;93.00
13322;DHT22;6730;46.248;6.930;2022-07-12T08:10:44;24.60;92.90
13322;DHT22;6730;46.248;6.930;2022-07-12T08:13:10;23.70;94.20
13322;DHT22;6730;46.248;6.930;2022-07-12T08:15:36;23.50;94.70
13322;DHT22;6730;46.248;6.930;2022-07-12T08:18:02;24.20;95.40
13322;DHT22;6730;46.248;6.930;2022-07-12T08:20:28;25.10;94.90
13322;DHT22;6730;46.248;6.930;2022-07-12T08:22:54;25.70;93.70
13322;DHT22;6730;46.248;6.930;2022-07-12T08:25:20;26.50;94.00
13322;DHT22;6730;46.248;6.930;2022-07-12T08:27:45;25.30;94.90
13322;DHT22;6730;46.248;6.930;2022-07-12T08:30:11;24.40;95.10
13322;DHT22;6730;46.248;6.930;2022-07-12T08:32:37;23.60;95.50
13322;DHT22;6730;46.248;6.930;2022-07-12T08:35:03;23.80;95.70
13322;DHT22;6730;46.248;6.930;2022-07-12T08:37:29;24.20;95.50
13322;DHT22;6730;46.248;6.930;2022-07-12T08:39:54;24.60;96.10
13322;DHT22;6730;46.248;6.930;2022-07-12T08:42:20;24.70;95.00
13322;DHT22;6730;46.248;6.930;2022-07-12T08:44:56;24.20;96.00
13322;DHT22;6730;46.248;6.930;2022-07-12T08:47:22;24.80;95.00
13322;DHT22;6730;46.248;6.930;2022-07-12T08:50:11;24.30;96.00
13322;DHT22;6730;46.248;6.930;2022-07-12T08:52:41;24.90;94.60
13322;DHT22;6730;46.248;6.930;2022-07-12T08:55:26;24.80;95.10
13322;DHT22;6730;46.248;6.930;2022-07-12T08:57:57;24.30;95.10
13322;DHT22;6730;46.248;6.930;2022-07-12T09:00:24;24.10;94.90
13322;DHT22;6730;46.248;6.930;2022-07-12T09:02:52;23.90;95.30
13322;DHT22;6730;46.248;6.930;2022-07-12T09:05:29;23.50;95.50
13322;DHT22;6730;46.248;6.930;2022-07-12T09:08:07;23.10;95.90
13322;DHT22;6730;46.248;6.930;2022-07-12T09:13:14;24.20;95.60
13322;DHT22;6730;46.248;6.930;2022-07-12T09:15:40;23.80;94.80
13322;DHT22;6730;46.248;6.930;2022-07-12T09:18:07;23.80;94.90
13322;DHT22;6730;46.248;6.930;2022-07-12T09:20:41;23.70;95.00
13322;DHT22;6730;46.248;6.930;2022-07-12T09:23:11;24.40;94.50
13322;DHT22;6730;46.248;6.930;2022-07-12T09:25:38;24.80;93.90
13322;DHT22;6730;46.248;6.930;2022-07-12T09:28:07;24.20;93.50
13322;DHT22;6730;46.248;6.930;2022-07-12T09:30:34;24.40;95.40
13322;DHT22;6730;46.248;6.930;2022-07-12T09:33:04;25.40;94.90
13322;DHT22;6730;46.248;6.930;2022-07-12T09:35:59;26.30;92.50
13322;DHT22;6730;46.248;6.930;2022-07-12T09:38:53;26.20;94.70
13322;DHT22;6730;46.248;6.930;2022-07-12T09:41:22;26.20;93.20
13322;DHT22;6730;46.248;6.930;2022-07-12T09:43:49;25.30;93.00
13322;DHT22;6730;46.248;6.930;2022-07-12T09:46:16;25.10;93.50
13322;DHT22;6730;46.248;6.930;2022-07-12T09:48:43;25.80;94.40
13322;DHT22;6730;46.248;6.930;2022-07-12T09:51:16;25.60;92.50
13322;DHT22;6730;46.248;6.930;2022-07-12T09:53:47;25.40;92.50
13322;DHT22;6730;46.248;6.930;2022-07-12T09:56:18;25.90;94.40
13322;DHT22;6730;46.248;6.930;2022-07-12T09:58:55;26.10;91.90
13322;DHT22;6730;46.248;6.930;2022-07-12T10:01:23;25.40;93.30
13322;DHT22;6730;46.248;6.930;2022-07-12T10:03:49;25.70;92.20
13322;DHT22;6730;46.248;6.930;2022-07-12T10:06:26;25.40;93.20
13322;DHT22;6730;46.248;6.930;2022-07-12T10:08:54;25.10;93.90
13322;DHT22;6730;46.248;6.930;2022-07-12T10:11:24;25.00;93.60
13322;DHT22;6730;46.248;6.930;2022-07-12T10:13:50;25.40;94.40
13322;DHT22;6730;46.248;6.930;2022-07-12T10:16:25;25.60;92.60
13322;DHT22;6730;46.248;6.930;2022-07-12T10:21:48;25.40;92.20
13322;DHT22;6730;46.248;6.930;2022-07-12T10:29:39;25.20;93.60
13322;DHT22;6730;46.248;6.930;2022-07-12T10:32:42;25.70;93.10
13322;DHT22;6730;46.248;6.930;2022-07-12T10:35:29;25.40;93.00
13322;DHT22;6730;46.248;6.930;2022-07-12T10:38:15;25.60;91.60
13322;DHT22;6730;46.248;6.930;2022-07-12T10:40:43;25.90;92.00
13322;DHT22;6730;46.248;6.930;2022-07-12T10:43:16;26.00;92.30
13322;DHT22;6730;46.248;6.930;2022-07-12T10:45:43;26.50;91.20
13322;DHT22;6730;46.248;6.930;2022-07-12T10:53:25;26.10;91.90
13322;DHT22;6730;46.248;6.930;2022-07-12T10:56:10;26.70;91.10
13322;DHT22;6730;46.248;6.930;2022-07-12T10:58:37;25.80;91.90
13322;DHT22;6730;46.248;6.930;2022-07-12T11:01:08;25.80;91.80
13322;DHT22;6730;46.248;6.930;2022-07-12T11:06:14;25.70;92.90
13322;DHT22;6730;46.248;6.930;2022-07-12T11:11:25;26.30;93.10
13322;DHT22;6730;46.248;6.930;2022-07-12T11:13:51;25.80;92.70
13322;DHT22;6730;46.248;6.930;2022-07-12T11:16:17;26.00;92.80
13322;DHT22;6730;46.248;6.930;2022-07-12T11:18:44;26.50;91.90
13322;DHT22;6730;46.248;6.930;2022-07-12T11:21:10;26.40;91.90
13322;DHT22;6730;46.248;6.930;2022-07-12T11:23:38;26.70;92.00
13322;DHT22;6730;46.248;6.930;2022-07-12T11:26:04;26.60;92.00
13322;DHT22;6730;46.248;6.930;2022-07-12T11:28:31;26.60;93.40
13322;DHT22;6730;46.248;6.930;2022-07-12T11:31:12;27.30;92.80
13322;DHT22;6730;46.248;6.930;2022-07-12T11:33:42;27.70;91.00
13322;DHT22;6730;46.248;6.930;2022-07-12T11:36:10;27.50;91.40
13322;DHT22;6730;46.248;6.930;2022-07-12T11:38:38;27.40;93.30
13322;DHT22;6730;46.248;6.930;2022-07-12T11:41:06;26.80;91.50
13322;DHT22;6730;46.248;6.930;2022-07-12T11:43:33;26.50;93.70
13322;DHT22;6730;46.248;6.930;2022-07-12T11:46:00;26.90;91.80
13322;DHT22;6730;46.248;6.930;2022-07-12T11:48:29;27.20;92.00
13322;DHT22;6730;46.248;6.930;2022-07-12T11:51:04;27.20;91.40
13322;DHT22;6730;46.248;6.930;2022-07-12T11:53:31;26.70;93.10
13322;DHT22;6730;46.248;6.930;2022-07-12T11:55:59;27.10;92.30
13322;DHT22;6730;46.248;6.930;2022-07-12T11:58:25;27.50;91.90
13322;DHT22;6730;46.248;6.930;2022-07-12T12:00:52;27.50;91.30
13322;DHT22;6730;46.248;6.930;2022-07-12T12:03:19;27.20;91.40
13322;DHT22;6730;46.248;6.930;2022-07-12T12:05:48;26.80;91.60
13322;DHT22;6730;46.248;6.930;2022-07-12T12:08:14;26.50;92.50
13322;DHT22;6730;46.248;6.930;2022-07-12T12:10:42;26.80;91.80
13322;DHT22;6730;46.248;6.930;2022-07-12T12:13:18;27.00;91.80
13322;DHT22;6730;46.248;6.930;2022-07-12T12:15:58;26.90;91.80
13322;DHT22;6730;46.248;6.930;2022-07-12T12:18:35;26.70;93.40
13322;DHT22;6730;46.248;6.930;2022-07-12T12:21:03;26.90;91.00
13322;DHT22;6730;46.248;6.930;2022-07-12T12:23:30;26.90;91.20
13322;DHT22;6730;46.248;6.930;2022-07-12T12:26:19;26.80;91.90
13322;DHT22;6730;46.248;6.930;2022-07-12T12:28:50;27.30;91.20
13322;DHT22;6730;46.248;6.930;2022-07-12T12:31:18;27.20;89.10
13322;DHT22;6730;46.248;6.930;2022-07-12T12:33:46;26.80;91.80
13322;DHT22;6730;46.248;6.930;2022-07-12T12:38:38;27.00;91.30
13322;DHT22;6730;46.248;6.930;2022-07-12T12:41:05;27.00;90.40
13322;DHT22;6730;46.248;6.930;2022-07-12T12:43:31;27.00;90.20
13322;DHT22;6730;46.248;6.930;2022-07-12T12:45:58;26.70;90.40
13322;DHT22;6730;46.248;6.930;2022-07-12T12:48:29;26.70;90.60
13322;DHT22;6730;46.248;6.930;2022-07-12T12:51:09;26.80;90.50
13322;DHT22;6730;46.248;6.930;2022-07-12T12:53:40;26.80;90.40
13322;DHT22;6730;46.248;6.930;2022-07-12T12:56:14;26.80;89.80
13322;DHT22;6730;46.248;6.930;2022-07-12T12:58:40;26.90;90.60
13322;DHT22;6730;46.248;6.930;2022-07-12T13:01:07;27.30;90.90
13322;DHT22;6730;46.248;6.930;2022-07-12T13:03:33;27.50;87.80
13322;DHT22;6730;46.248;6.930;2022-07-12T13:05:59;27.10;90.20
13322;DHT22;6730;46.248;6.930;2022-07-12T13:08:27;26.90;90.20
13322;DHT22;6730;46.248;6.930;2022-07-12T13:10:53;26.70;89.50
13322;DHT22;6730;46.248;6.930;2022-07-12T13:13:39;26.70;88.60
13322;DHT22;6730;46.248;6.930;2022-07-12T13:16:05;26.60;89.60
13322;DHT22;6730;46.248;6.930;2022-07-12T13:18:31;26.70;89.70
13322;DHT22;6730;46.248;6.930;2022-07-12T13:20:57;26.80;88.50
13322;DHT22;6730;46.248;6.930;2022-07-12T13:23:22;26.80;89.40
13322;DHT22;6730;46.248;6.930;2022-07-12T13:25:48;27.00;87.50
13322;DHT22;6730;46.248;6.930;2022-07-12T13:28:14;26.90;87.00
13322;DHT22;6730;46.248;6.930;2022-07-12T13:30:40;26.90;88.70
13322;DHT22;6730;46.248;6.930;2022-07-12T13:33:06;27.00;87.20
13322;DHT22;6730;46.248;6.930;2022-07-12T13:35:31;27.10;87.10
13322;DHT22;6730;46.248;6.930;2022-07-12T13:37:57;27.10;87.30
13322;DHT22;6730;46.248;6.930;2022-07-12T13:40:23;27.10;86.80
13322;DHT22;6730;46.248;6.930;2022-07-12T13:42:52;26.90;85.50
13322;DHT22;6730;46.248;6.930;2022-07-12T13:45:23;27.00;86.40
13322;DHT22;6730;46.248;6.930;2022-07-12T13:47:50;26.80;84.90
13322;DHT22;6730;46.248;6.930;2022-07-12T13:50:17;26.90;86.70
13322;DHT22;6730;46.248;6.930;2022-07-12T13:52:44;27.10;87.50
13322;DHT22;6730;46.248;6.930;2022-07-12T13:55:11;26.90;85.30
13322;DHT22;6730;46.248;6.930;2022-07-12T13:57:37;27.00;83.50
13322;DHT22;6730;46.248;6.930;2022-07-12T14:00:06;27.00;82.20
13322;DHT22;6730;46.248;6.930;2022-07-12T14:02:35;27.00;80.50
13322;DHT22;6730;46.248;6.930;2022-07-12T14:05:02;27.10;81.70
13322;DHT22;6730;46.248;6.930;2022-07-12T14:07:28;26.90;80.40
13322;DHT22;6730;46.248;6.930;2022-07-12T14:09:53;26.80;82.10
13322;DHT22;6730;46.248;6.930;2022-07-12T14:12:19;26.80;80.70
13322;DHT22;6730;46.248;6.930;2022-07-12T14:14:45;26.70;78.50
13322;DHT22;6730;46.248;6.930;2022-07-12T14:17:37;26.70;78.60
13322;DHT22;6730;46.248;6.930;2022-07-12T14:20:03;26.80;78.50
13322;DHT22;6730;46.248;6.930;2022-07-12T14:22:29;26.80;77.60
13322;DHT22;6730;46.248;6.930;2022-07-12T14:24:56;26.70;78.40
13322;DHT22;6730;46.248;6.930;2022-07-12T14:27:22;26.80;78.70
13322;DHT22;6730;46.248;6.930;2022-07-12T14:29:48;26.80;76.90
13322;DHT22;6730;46.248;6.930;2022-07-12T14:32:14;26.90;77.10
13322;DHT22;6730;46.248;6.930;2022-07-12T14:34:40;27.10;77.30
13322;DHT22;6730;46.248;6.930;2022-07-12T14:37:06;27.00;76.70
13322;DHT22;6730;46.248;6.930;2022-07-12T14:39:32;26.90;76.70
13322;DHT22;6730;46.248;6.930;2022-07-12T14:41:57;27.00;76.90
13322;DHT22;6730;46.248;6.930;2022-07-12T14:44:24;27.00;75.10
13322;DHT22;6730;46.248;6.930;2022-07-12T14:46:51;27.00;75.70
13322;DHT22;6730;46.248;6.930;2022-07-12T14:49:19;26.90;75.60
13322;DHT22;6730;46.248;6.930;2022-07-12T14:51:45;26.90;75.30
13322;DHT22;6730;46.248;6.930;2022-07-12T14:54:11;26.90;74.60
13322;DHT22;6730;46.248;6.930;2022-07-12T14:56:36;27.00;74.40
13322;DHT22;6730;46.248;6.930;2022-07-12T14:59:02;27.10;74.50
13322;DHT22;6730;46.248;6.930;2022-07-12T15:01:28;27.30;74.60
13322;DHT22;6730;46.248;6.930;2022-07-12T15:03:54;27.40;73.50
13322;DHT22;6730;46.248;6.930;2022-07-12T15:06:20;27.10;73.90
13322;DHT22;6730;46.248;6.930;2022-07-12T15:08:45;27.20;74.80
13322;DHT22;6730;46.248;6.930;2022-07-12T15:11:11;27.20;72.40
13322;DHT22;6730;46.248;6.930;2022-07-12T15:13:37;27.20;73.20
13322;DHT22;6730;46.248;6.930;2022-07-12T15:16:03;27.20;71.90
13322;DHT22;6730;46.248;6.930;2022-07-12T15:18:29;27.20;73.40
13322;DHT22;6730;46.248;6.930;2022-07-12T15:20:55;27.30;73.90
13322;DHT22;6730;46.248;6.930;2022-07-12T15:23:21;27.30;74.00
13322;DHT22;6730;46.248;6.930;2022-07-12T15:25:47;27.50;73.60
13322;DHT22;6730;46.248;6.930;2022-07-12T15:28:13;27.60;74.10
13322;DHT22;6730;46.248;6.930;2022-07-12T15:30:38;27.70;75.00
13322;DHT22;6730;46.248;6.930;2022-07-12T15:33:04;27.60;74.50
13322;DHT22;6730;46.248;6.930;2022-07-12T15:35:30;27.80;73.90
13322;DHT22;6730;46.248;6.930;2022-07-12T15:37:55;27.80;73.00
13322;DHT22;6730;46.248;6.930;2022-07-12T15:40:21;27.70;72.70
13322;DHT22;6730;46.248;6.930;2022-07-12T15:42:46;27.80;73.00
13322;DHT22;6730;46.248;6.930;2022-07-12T15:45:12;27.80;71.80
13322;DHT22;6730;46.248;6.930;2022-07-12T15:47:39;27.80;72.00
13322;DHT22;6730;46.248;6.930;2022-07-12T15:50:05;27.60;72.60
13322;DHT22;6730;46.248;6.930;2022-07-12T15:52:31;27.50;71.30
13322;DHT22;6730;46.248;6.930;2022-07-12T15:55:15;27.50;71.00
13322;DHT22;6730;46.248;6.930;2022-07-12T15:57:41;27.40;70.40
13322;DHT22;6730;46.248;6.930;2022-07-12T16:00:08;27.50;72.00
13322;DHT22;6730;46.248;6.930;2022-07-12T16:02:37;27.50;73.00
13322;DHT22;6730;46.248;6.930;2022-07-12T16:05:03;27.70;72.00
13322;DHT22;6730;46.248;6.930;2022-07-12T16:07:29;27.50;72.00
13322;DHT22;6730;46.248;6.930;2022-07-12T16:09:55;27.40;72.10
13322;DHT22;6730;46.248;6.930;2022-07-12T16:12:21;27.40;72.00